Time;durP1;ratioP1;P1;durP2;ratioP2;P2;SDS_P1;SDS_P2;PMS_P1;PMS_P2;Temp;Humidity;BMP_temperature;BMP_pressure;BME280_temperature;BME280_humidity;BME280_pressure;Samples;Min_cycle;Max_cycle;Signal;HPM_P1;HPM_P2
2022/04/25 00:02:57;;;;;;;11.25;8.23;;;;;;;;;;12654588;23;20239;-72
2022/04/25 00:07:58;;;;;;;13.75;8.43;;;;;;;;;;12656265;23;20185;-71
2022/04/25 00:12:59;;;;;;;13.43;8.13;;;;;;;;;;12655652;23;20180;-72
2022/04/25 00:18:00;;;;;;;10.27;8.43;;;;;;;;;;12627280;23;20549;-71
2022/04/25 00:23:04;;;;;;;14.73;7.97;;;;;;;;;;12655567;23;20252;-72
2022/04/25 00:28:05;;;;;;;10.93;8.38;;;;;;;;;;12656852;23;20184;-72
2022/04/25 00:33:06;;;;;;;13.57;8.52;;;;;;;;;;12629611;23;20200;-72
2022/04/25 00:38:08;;;;;;;13.18;8.30;;;;;;;;;;12658761;23;20197;-72
2022/04/25 00:43:09;;;;;;;14.68;8.70;;;;;;;;;;12656148;23;20307;-72
2022/04/25 00:48:10;;;;;;;15.32;8.98;;;;;;;;;;12659271;23;20181;-73
2022/04/25 00:53:11;;;;;;;13.15;8.27;;;;;;;;;;12661176;23;20949;-73
2022/04/25 00:58:13;;;;;;;15.05;8.43;;;;;;;;;;12661267;23;20188;-73
2022/04/25 01:03:14;;;;;;;11.98;8.70;;;;;;;;;;12658763;23;20241;-73
2022/04/25 01:08:15;;;;;;;19.05;10.15;;;;;;;;;;12660561;23;20193;-72
2022/04/25 01:13:16;;;;;;;11.05;9.23;;;;;;;;;;12632609;23;20185;-73
2022/04/25 01:18:17;;;;;;;14.40;9.30;;;;;;;;;;12659734;23;20278;-74
2022/04/25 01:28:40;;;;;;;16.25;10.48;;;;;;;;;;12659776;23;20181;-74
2022/04/25 01:33:41;;;;;;;19.17;10.45;;;;;;;;;;12657484;23;20212;-73
2022/04/25 01:38:42;;;;;;;15.23;10.52;;;;;;;;;;12660209;23;20188;-73
2022/04/25 01:43:44;;;;;;;21.63;12.35;;;;;;;;;;12657062;23;20255;-74
2022/04/25 01:48:45;;;;;;;12.30;10.27;;;;;;;;;;12661159;23;20907;-74
2022/04/25 01:53:46;;;;;;;17.20;11.02;;;;;;;;;;12659698;23;20261;-74
2022/04/25 01:58:47;;;;;;;16.33;10.48;;;;;;;;;;12662556;23;20181;-73
2022/04/25 02:03:48;;;;;;;12.68;9.93;;;;;;;;;;12631605;23;20546;-73
2022/04/25 02:08:49;;;;;;;15.32;11.07;;;;;;;;;;12659147;23;20216;-73
2022/04/25 02:13:51;;;;;;;17.52;10.82;;;;;;;;;;12658992;23;20591;-73
2022/04/25 02:18:53;;;;;;;16.17;11.85;;;;;;;;;;12659334;23;20592;-73
2022/04/25 02:23:54;;;;;;;15.40;11.05;;;;;;;;;;12658680;23;20227;-72
2022/04/25 02:28:55;;;;;;;19.83;11.70;;;;;;;;;;12661034;23;20184;-72
2022/04/25 02:33:57;;;;;;;16.17;11.63;;;;;;;;;;12631149;23;20205;-70
2022/04/25 02:38:58;;;;;;;16.27;11.93;;;;;;;;;;12658032;23;20183;-71
2022/04/25 02:43:59;;;;;;;20.92;12.13;;;;;;;;;;12656871;23;20208;-72
2022/04/25 02:49:00;;;;;;;20.65;11.25;;;;;;;;;;12631501;23;20183;-72
2022/04/25 02:54:01;;;;;;;18.23;11.80;;;;;;;;;;12657431;23;20255;-72
2022/04/25 02:59:02;;;;;;;22.65;12.68;;;;;;;;;;12658407;23;20193;-71
2022/04/25 03:04:03;;;;;;;21.73;11.77;;;;;;;;;;12655811;23;20260;-71
2022/04/25 03:09:05;;;;;;;17.25;12.00;;;;;;;;;;12656727;23;20204;-71
2022/04/25 03:14:06;;;;;;;18.48;11.80;;;;;;;;;;12655263;23;20177;-71
2022/04/25 03:19:08;;;;;;;17.35;11.15;;;;;;;;;;12659222;23;20702;-71
2022/04/25 03:24:09;;;;;;;14.65;11.32;;;;;;;;;;12657830;23;20197;-70
2022/04/25 03:29:11;;;;;;;17.90;11.63;;;;;;;;;;12654450;23;20260;-71
2022/04/25 03:34:12;;;;;;;20.13;12.43;;;;;;;;;;12652352;23;20532;-70
2022/04/25 03:39:13;;;;;;;19.50;12.38;;;;;;;;;;12654762;23;20243;-70
2022/04/25 03:44:14;;;;;;;21.88;13.18;;;;;;;;;;12655162;23;20211;-70
2022/04/25 03:49:15;;;;;;;16.55;11.77;;;;;;;;;;12657843;23;20516;-71
2022/04/25 03:57:09;;;;;;;21.48;12.85;;;;;;;;;;12632710;23;20191;-69
2022/04/25 03:59:37;;;;;;;21.20;11.43;;;;;;;;;;12661766;23;20185;-70
2022/04/25 04:04:38;;;;;;;26.67;11.60;;;;;;;;;;12661125;23;20829;-70
2022/04/25 04:09:45;;;;;;;21.52;13.27;;;;;;;;;;12661524;23;20180;-71
2022/04/25 04:14:47;;;;;;;19.58;12.38;;;;;;;;;;12635010;23;20256;-70
2022/04/25 04:19:48;;;;;;;18.10;12.00;;;;;;;;;;12661567;23;20209;-70
2022/04/25 04:24:49;;;;;;;22.20;12.30;;;;;;;;;;12662612;23;20342;-70
2022/04/25 04:29:50;;;;;;;15.77;11.15;;;;;;;;;;12636300;23;20173;-70
2022/04/25 04:34:51;;;;;;;17.65;11.20;;;;;;;;;;12661249;23;20208;-70
2022/04/25 04:45:13;;;;;;;19.73;11.05;;;;;;;;;;12660800;23;20212;-70
2022/04/25 04:50:15;;;;;;;21.92;11.75;;;;;;;;;;12660642;23;20184;-71
2022/04/25 04:55:16;;;;;;;17.23;11.98;;;;;;;;;;12635474;23;20192;-70
2022/04/25 05:00:17;;;;;;;17.80;12.02;;;;;;;;;;12662032;23;20627;-66
2022/04/25 05:05:18;;;;;;;17.27;11.82;;;;;;;;;;12659273;23;20239;-70
2022/04/25 05:10:19;;;;;;;14.32;11.18;;;;;;;;;;12662499;23;20211;-71
2022/04/25 05:15:21;;;;;;;17.15;11.20;;;;;;;;;;12661050;23;20219;-70
2022/04/25 05:20:23;;;;;;;14.02;10.68;;;;;;;;;;12659652;23;20185;-67
2022/04/25 05:25:25;;;;;;;15.98;10.63;;;;;;;;;;12634960;23;20185;-70
2022/04/25 05:30:27;;;;;;;18.48;11.90;;;;;;;;;;12661792;23;20181;-70
2022/04/25 05:35:30;;;;;;;18.52;11.20;;;;;;;;;;12636908;23;20173;-70
2022/04/25 05:40:31;;;;;;;15.32;11.63;;;;;;;;;;12661977;23;20189;-68
2022/04/25 05:45:32;;;;;;;16.70;10.50;;;;;;;;;;12601913;23;20189;-71
2022/04/25 05:55:53;;;;;;;18.25;11.00;;;;;;;;;;12601708;23;20272;-70
2022/04/25 06:00:54;;;;;;;16.48;10.90;;;;;;;;;;12600126;23;20261;-71
2022/04/25 06:05:55;;;;;;;15.65;10.32;;;;;;;;;;12598740;23;20539;-70
2022/04/25 06:10:57;;;;;;;16.90;10.82;;;;;;;;;;12588430;23;20217;-70
2022/04/25 06:15:58;;;;;;;17.08;10.15;;;;;;;;;;12599855;23;20169;-71
2022/04/25 06:20:59;;;;;;;17.00;10.45;;;;;;;;;;12600551;23;20200;-71
2022/04/25 06:26:00;;;;;;;16.52;10.35;;;;;;;;;;12600870;23;20267;-70
2022/04/25 06:31:01;;;;;;;12.82;9.52;;;;;;;;;;12601918;23;20201;-70
2022/04/25 06:36:03;;;;;;;14.95;10.25;;;;;;;;;;12586294;23;20190;-70
2022/04/25 06:41:04;;;;;;;12.32;9.75;;;;;;;;;;12604801;23;20307;-69
2022/04/25 06:46:05;;;;;;;14.88;9.40;;;;;;;;;;12659082;23;20782;-70
2022/04/25 06:51:07;;;;;;;16.45;10.50;;;;;;;;;;12655773;23;20670;-70
2022/04/25 06:56:08;;;;;;;15.25;9.43;;;;;;;;;;12656508;23;20195;-70
2022/04/25 07:01:09;;;;;;;17.88;9.55;;;;;;;;;;12628879;23;20212;-71
2022/04/25 07:06:10;;;;;;;15.38;9.40;;;;;;;;;;12657217;23;20189;-70
2022/04/25 07:11:11;;;;;;;22.80;10.48;;;;;;;;;;12655381;23;20172;-70
2022/04/25 07:16:13;;;;;;;13.20;9.43;;;;;;;;;;12656545;23;20177;-70
2022/04/25 07:31:54;;;;;;;12.82;9.95;;;;;;;;;;12656985;23;20204;-70
2022/04/25 07:36:55;;;;;;;14.43;9.63;;;;;;;;;;12658214;23;20188;-70
2022/04/25 07:41:57;;;;;;;12.82;10.15;;;;;;;;;;12658927;23;20200;-70
2022/04/25 07:46:59;;;;;;;13.82;10.52;;;;;;;;;;12657914;23;20185;-71
2022/04/25 07:52:00;;;;;;;15.50;10.50;;;;;;;;;;12659433;23;20187;-71
2022/04/25 07:57:03;;;;;;;13.43;9.82;;;;;;;;;;12656471;23;20240;-71
2022/04/25 08:02:05;;;;;;;10.80;8.93;;;;;;;;;;12657107;23;20237;-71
2022/04/25 08:07:06;;;;;;;12.98;9.52;;;;;;;;;;12655276;23;20173;-71
2022/04/25 08:22:57;;;;;;;14.88;9.95;;;;;;;;;;12659523;23;20220;-73
2022/04/25 08:27:59;;;;;;;16.75;10.95;;;;;;;;;;12660076;23;20181;-73
2022/04/25 08:33:01;;;;;;;16.67;10.00;;;;;;;;;;12657375;23;20259;-74
2022/04/25 08:38:02;;;;;;;12.98;9.25;;;;;;;;;;12657281;23;20919;-73
2022/04/25 08:43:04;;;;;;;11.88;8.45;;;;;;;;;;12654722;23;20212;-72
2022/04/25 08:48:05;;;;;;;11.02;8.43;;;;;;;;;;12630787;23;20189;-71
2022/04/25 08:53:07;;;;;;;11.10;8.48;;;;;;;;;;12632439;23;20193;-73
2022/04/25 08:58:09;;;;;;;11.15;8.73;;;;;;;;;;12657484;23;20636;-72
2022/04/25 09:03:12;;;;;;;9.95;8.35;;;;;;;;;;12659181;23;20487;-73
2022/04/25 09:08:13;;;;;;;15.43;9.55;;;;;;;;;;12659297;23;20554;-73
2022/04/25 09:13:14;;;;;;;12.25;8.05;;;;;;;;;;12659765;23;20185;-72
2022/04/25 09:18:15;;;;;;;9.23;8.35;;;;;;;;;;12657496;23;20181;-71
2022/04/25 09:23:23;;;;;;;11.88;9.18;;;;;;;;;;12657913;23;20205;-73
2022/04/25 09:28:24;;;;;;;12.95;8.55;;;;;;;;;;12658795;23;20193;-73
2022/04/25 09:33:26;;;;;;;11.88;8.40;;;;;;;;;;12654221;23;20938;-72
2022/04/25 09:38:30;;;;;;;14.80;9.02;;;;;;;;;;12661221;23;20221;-73
2022/04/25 09:43:32;;;;;;;13.20;7.78;;;;;;;;;;12657902;23;20203;-72
2022/04/25 09:48:33;;;;;;;10.75;8.70;;;;;;;;;;12659277;23;20181;-73
2022/04/25 09:53:46;;;;;;;10.68;8.35;;;;;;;;;;12655611;23;20959;-72
2022/04/25 09:59:07;;;;;;;10.48;7.97;;;;;;;;;;12658608;23;20243;-73
2022/04/25 10:04:30;;;;;;;14.38;8.65;;;;;;;;;;12653162;23;20247;-73
2022/04/25 10:09:31;;;;;;;8.60;7.72;;;;;;;;;;12656426;23;20188;-72
2022/04/25 10:14:33;;;;;;;10.68;8.57;;;;;;;;;;12656044;23;20283;-73
2022/04/25 10:19:34;;;;;;;71.18;10.75;;;;;;;;;;12655962;23;20426;-68
2022/04/25 10:24:36;;;;;;;8.77;7.88;;;;;;;;;;12654887;23;20750;-73
2022/04/25 10:29:37;;;;;;;12.25;8.88;;;;;;;;;;12656441;23;20267;-72
2022/04/25 10:35:12;;;;;;;9.98;7.57;;;;;;;;;;12654666;23;20220;-72
2022/04/25 10:40:14;;;;;;;7.35;6.78;;;;;;;;;;12630100;23;20288;-73
2022/04/25 10:45:15;;;;;;;8.52;7.43;;;;;;;;;;12656853;23;20236;-72
2022/04/25 10:50:16;;;;;;;8.88;6.43;;;;;;;;;;12656656;23;20228;-73
2022/04/25 10:55:31;;;;;;;7.55;6.72;;;;;;;;;;12654680;23;20209;-72
2022/04/25 11:00:41;;;;;;;9.50;7.32;;;;;;;;;;12656029;23;20514;-73
2022/04/25 11:05:43;;;;;;;8.55;6.68;;;;;;;;;;12654608;23;20205;-74
2022/04/25 11:10:45;;;;;;;7.90;7.07;;;;;;;;;;12657466;23;20189;-73
2022/04/25 11:15:47;;;;;;;7.13;6.60;;;;;;;;;;12652413;23;20189;-73
2022/04/25 11:20:56;;;;;;;6.95;6.28;;;;;;;;;;12651405;23;20662;-72
2022/04/25 11:25:59;;;;;;;7.22;6.63;;;;;;;;;;12654404;23;20280;-70
2022/04/25 11:31:10;;;;;;;7.43;6.93;;;;;;;;;;12651564;23;20330;-70
2022/04/25 11:36:11;;;;;;;8.02;6.82;;;;;;;;;;12652532;23;20181;-71
2022/04/25 11:41:13;;;;;;;6.50;5.90;;;;;;;;;;12652066;23;20650;-70
2022/04/25 11:46:15;;;;;;;6.35;5.78;;;;;;;;;;12628377;23;20242;-70
2022/04/25 11:51:29;;;;;;;6.15;5.65;;;;;;;;;;12655058;23;20192;-71
2022/04/25 11:56:31;;;;;;;6.15;5.72;;;;;;;;;;12653763;23;20188;-72
2022/04/25 12:01:38;;;;;;;6.15;5.75;;;;;;;;;;12625093;23;20251;-72
2022/04/25 12:06:39;;;;;;;6.30;5.80;;;;;;;;;;12658122;23;20236;-72
2022/04/25 12:17:14;;;;;;;6.32;5.93;;;;;;;;;;12591870;23;20192;-72
2022/04/25 12:22:22;;;;;;;6.85;6.20;;;;;;;;;;12656767;23;20200;-72
2022/04/25 12:27:23;;;;;;;6.88;6.30;;;;;;;;;;12632290;23;20623;-69
2022/04/25 12:32:24;;;;;;;6.25;5.78;;;;;;;;;;12657673;23;20201;-71
2022/04/25 12:37:25;;;;;;;7.70;5.55;;;;;;;;;;12657811;23;20686;-72
2022/04/25 12:42:44;;;;;;;5.70;5.40;;;;;;;;;;12631607;23;20288;-71
2022/04/25 12:47:45;;;;;;;5.78;5.47;;;;;;;;;;12657286;23;20260;-72
2022/04/25 12:52:50;;;;;;;6.53;6.13;;;;;;;;;;12660689;23;20181;-70
2022/04/25 12:57:52;;;;;;;4.60;4.28;;;;;;;;;;12658798;23;20189;-71
2022/04/25 13:03:02;;;;;;;4.85;4.55;;;;;;;;;;12655941;23;20629;-71
2022/04/25 13:08:03;;;;;;;5.68;5.30;;;;;;;;;;12656789;23;20579;-72
2022/04/25 13:13:04;;;;;;;5.65;5.07;;;;;;;;;;12657771;23;20188;-71
2022/04/25 13:18:06;;;;;;;5.00;4.78;;;;;;;;;;12656393;23;20184;-71
2022/04/25 13:23:07;;;;;;;4.82;4.63;;;;;;;;;;12656891;23;20666;-70
2022/04/25 13:28:09;;;;;;;5.43;4.93;;;;;;;;;;12659516;23;20200;-73
2022/04/25 13:33:10;;;;;;;5.97;5.28;;;;;;;;;;12658080;23;20210;-71
2022/04/25 13:38:13;;;;;;;5.82;5.07;;;;;;;;;;12657704;23;20180;-70
2022/04/25 13:43:16;;;;;;;5.00;4.57;;;;;;;;;;12655842;23;20228;-70
2022/04/25 13:48:17;;;;;;;4.35;4.15;;;;;;;;;;12655233;23;20173;-70
2022/04/25 13:53:18;;;;;;;4.65;4.35;;;;;;;;;;12657277;23;20224;-70
2022/04/25 13:58:19;;;;;;;5.57;5.20;;;;;;;;;;12654974;23;20189;-69
2022/04/25 14:03:21;;;;;;;5.70;5.45;;;;;;;;;;12656622;23;20682;-70
2022/04/25 14:08:23;;;;;;;5.03;4.68;;;;;;;;;;12656929;23;20181;-70
2022/04/25 14:13:25;;;;;;;4.90;4.45;;;;;;;;;;12655691;23;20177;-68
2022/04/25 14:18:28;;;;;;;3.85;3.67;;;;;;;;;;12657765;23;20184;-69
2022/04/25 14:23:29;;;;;;;4.45;4.05;;;;;;;;;;12658269;23;20193;-70
2022/04/25 14:28:33;;;;;;;4.38;4.07;;;;;;;;;;12658420;23;20199;-70
2022/04/25 14:33:34;;;;;;;4.13;4.00;;;;;;;;;;12655222;23;20663;-70
2022/04/25 14:38:35;;;;;;;4.55;4.35;;;;;;;;;;12652413;23;20185;-70
2022/04/25 14:43:36;;;;;;;4.13;3.92;;;;;;;;;;12658499;23;20205;-70
2022/04/25 14:48:39;;;;;;;4.20;3.95;;;;;;;;;;12656336;23;20177;-70
2022/04/25 14:59:01;;;;;;;4.22;3.88;;;;;;;;;;12656406;23;20204;-70
2022/04/25 15:04:03;;;;;;;3.63;3.53;;;;;;;;;;12654415;23;20216;-71
2022/04/25 15:09:04;;;;;;;3.47;3.40;;;;;;;;;;12655015;23;20250;-71
2022/04/25 15:14:05;;;;;;;3.97;3.00;;;;;;;;;;12659572;23;20188;-71
2022/04/25 15:19:06;;;;;;;2.65;2.47;;;;;;;;;;12656988;23;20200;-70
2022/04/25 15:24:08;;;;;;;2.22;2.13;;;;;;;;;;12658800;23;20868;-70
2022/04/25 15:29:09;;;;;;;2.65;2.30;;;;;;;;;;12656903;23;20595;-69
2022/04/25 15:34:11;;;;;;;2.38;2.10;;;;;;;;;;12658204;23;20287;-70
2022/04/25 15:39:12;;;;;;;2.55;2.45;;;;;;;;;;12660939;23;20189;-70
2022/04/25 15:44:13;;;;;;;2.97;2.85;;;;;;;;;;12659388;23;20239;-70
2022/04/25 15:49:14;;;;;;;2.90;2.80;;;;;;;;;;12659766;23;20189;-70
2022/04/25 15:59:35;;;;;;;4.00;3.50;;;;;;;;;;12662962;23;20179;-70
2022/04/25 16:04:36;;;;;;;3.33;3.22;;;;;;;;;;12662133;23;20707;-70
2022/04/25 16:09:37;;;;;;;3.33;3.17;;;;;;;;;;12663028;23;21592;-70
2022/04/25 16:14:38;;;;;;;2.92;2.72;;;;;;;;;;12663493;23;20185;-71
2022/04/25 16:19:40;;;;;;;2.72;2.63;;;;;;;;;;12663279;23;20173;-71
2022/04/25 16:24:41;;;;;;;3.17;3.00;;;;;;;;;;12663182;23;20209;-70
2022/04/25 16:29:44;;;;;;;4.57;4.28;;;;;;;;;;12662483;23;20173;-70
2022/04/25 16:34:46;;;;;;;4.55;4.25;;;;;;;;;;12660527;23;20663;-71
2022/04/25 16:39:47;;;;;;;4.90;4.53;;;;;;;;;;12663713;23;20887;-70
2022/04/25 16:44:48;;;;;;;5.55;4.90;;;;;;;;;;12662478;23;20197;-71
2022/04/25 16:49:49;;;;;;;4.47;4.10;;;;;;;;;;12661179;23;20196;-71
2022/04/25 16:54:50;;;;;;;5.20;4.80;;;;;;;;;;12662137;23;20216;-71
2022/04/25 16:59:51;;;;;;;4.30;4.00;;;;;;;;;;12661422;23;20324;-71
2022/04/25 17:04:52;;;;;;;4.22;3.92;;;;;;;;;;12659092;23;20215;-71
2022/04/25 17:09:53;;;;;;;4.43;4.13;;;;;;;;;;12659724;23;20184;-73
2022/04/25 17:14:54;;;;;;;4.78;4.38;;;;;;;;;;12661329;23;20192;-72
2022/04/25 17:19:55;;;;;;;4.32;4.20;;;;;;;;;;12660990;23;20205;-73
2022/04/25 17:24:57;;;;;;;3.95;3.85;;;;;;;;;;12657008;23;20196;-70
2022/04/25 17:29:58;;;;;;;4.57;4.30;;;;;;;;;;12658537;23;20185;-71
